Time;durP1;ratioP1;P1;durP2;ratioP2;P2;SDS_P1;SDS_P2;PMS_P1;PMS_P2;Temp;Humidity;BMP_temperature;BMP_pressure;BME280_temperature;BME280_humidity;BME280_pressure;Samples;Min_cycle;Max_cycle;Signal;HPM_P1;HPM_P2
2022/01/28 00:00:32;;;;;;;12.43;6.72;;;;;;;;;;4945139;28;20051;-72
2022/01/28 00:03:10;;;;;;;12.05;6.38;;;;;;;;;;4937890;28;20460;-71
2022/01/28 00:05:38;;;;;;;11.45;5.20;;;;;;;;;;4944771;28;20884;-71
2022/01/28 00:08:06;;;;;;;10.18;4.72;;;;;;;;;;4930425;28;20041;-72
2022/01/28 00:10:34;;;;;;;10.57;4.43;;;;;;;;;;4946708;28;20888;-72
2022/01/28 00:40:25;;;;;;;10.07;4.30;;;;;;;;;;4993435;28;20441;-72
2022/01/28 00:42:51;;;;;;;9.82;4.25;;;;;;;;;;4991791;28;20037;-72
2022/01/28 00:45:18;;;;;;;9.75;4.10;;;;;;;;;;4995195;28;20024;-73
2022/01/28 00:47:47;;;;;;;9.50;4.13;;;;;;;;;;5011050;28;20030;-72
2022/01/28 00:50:16;;;;;;;8.88;3.88;;;;;;;;;;4987245;28;20376;-72
2022/01/28 00:52:44;;;;;;;10.00;4.15;;;;;;;;;;4981226;28;20053;-71
2022/01/28 00:55:12;;;;;;;10.05;4.40;;;;;;;;;;4992032;28;21288;-71
2022/01/28 00:57:39;;;;;;;10.10;4.22;;;;;;;;;;4996659;28;20348;-71
2022/01/28 01:00:09;;;;;;;9.13;3.72;;;;;;;;;;5009593;28;20025;-71
2022/01/28 01:02:38;;;;;;;9.57;3.88;;;;;;;;;;4994763;28;20134;-71
2022/01/28 01:05:07;;;;;;;9.25;3.70;;;;;;;;;;4989372;28;20021;-71
2022/01/28 01:07:37;;;;;;;9.15;3.80;;;;;;;;;;4995483;28;20113;-71
2022/01/28 01:10:09;;;;;;;9.25;3.55;;;;;;;;;;5008162;28;20116;-71
2022/01/28 01:12:41;;;;;;;9.75;3.88;;;;;;;;;;4960178;28;20053;-72
2022/01/28 01:15:13;;;;;;;12.55;4.10;;;;;;;;;;5010551;28;20041;-72
2022/01/28 01:23:21;;;;;;;9.32;3.95;;;;;;;;;;4981698;28;20119;-71
2022/01/28 01:26:30;;;;;;;10.18;4.50;;;;;;;;;;4972695;28;20045;-71
2022/01/28 01:28:44;;;;;;;10.02;4.60;;;;;;;;;;4965130;28;20614;-71
2022/01/28 01:31:18;;;;;;;10.77;4.68;;;;;;;;;;4964507;28;20042;-71
2022/01/28 01:33:53;;;;;;;10.18;4.80;;;;;;;;;;4985558;28;20113;-71
2022/01/28 01:36:23;;;;;;;11.10;5.05;;;;;;;;;;4983182;28;20034;-72
2022/01/28 01:38:49;;;;;;;12.27;5.20;;;;;;;;;;4987110;28;20069;-72
2022/01/28 01:41:31;;;;;;;12.05;5.10;;;;;;;;;;4986294;28;20060;-70
2022/01/28 01:44:05;;;;;;;12.05;5.72;;;;;;;;;;4965698;28;20033;-72
2022/01/28 01:52:21;;;;;;;13.00;6.95;;;;;;;;;;4980804;28;19983;-71
2022/01/28 01:54:50;;;;;;;13.75;6.50;;;;;;;;;;4992735;28;20679;-71
2022/01/28 01:57:19;;;;;;;12.25;6.10;;;;;;;;;;5011785;28;20047;-71
2022/01/28 01:59:48;;;;;;;12.60;6.40;;;;;;;;;;4979376;28;20163;-72
2022/01/28 02:02:16;;;;;;;12.20;5.75;;;;;;;;;;4978499;28;20423;-72
2022/01/28 02:04:44;;;;;;;10.52;4.75;;;;;;;;;;4980173;28;20049;-71
2022/01/28 02:07:13;;;;;;;11.00;4.63;;;;;;;;;;5007445;28;20024;-71
2022/01/28 02:09:40;;;;;;;9.48;4.38;;;;;;;;;;4981601;28;20676;-73
2022/01/28 02:12:09;;;;;;;10.73;4.20;;;;;;;;;;5007315;28;20022;-72
2022/01/28 02:14:36;;;;;;;9.93;4.40;;;;;;;;;;4994516;28;20041;-71
2022/01/28 02:17:04;;;;;;;9.82;4.32;;;;;;;;;;4980900;28;20561;-72
2022/01/28 02:19:30;;;;;;;10.18;4.53;;;;;;;;;;4996270;28;20132;-71
2022/01/28 02:21:58;;;;;;;10.48;3.85;;;;;;;;;;5010916;28;20064;-70
2022/01/28 02:24:38;;;;;;;9.90;3.80;;;;;;;;;;5010269;28;20524;-71
2022/01/28 02:27:05;;;;;;;9.30;3.55;;;;;;;;;;5009979;28;20034;-71
2022/01/28 02:29:35;;;;;;;8.05;3.20;;;;;;;;;;5017788;28;20087;-71
2022/01/28 02:32:03;;;;;;;8.35;2.42;;;;;;;;;;5009185;28;20413;-72
2022/01/28 02:34:30;;;;;;;7.45;2.50;;;;;;;;;;5011479;28;20112;-71
2022/01/28 02:36:57;;;;;;;5.75;2.08;;;;;;;;;;4987616;28;20037;-71
2022/01/28 02:39:25;;;;;;;6.38;1.98;;;;;;;;;;5012868;28;20029;-72
2022/01/28 02:41:59;;;;;;;6.05;2.05;;;;;;;;;;5012624;28;20120;-71
2022/01/28 02:47:16;;;;;;;6.38;2.17;;;;;;;;;;5008773;28;20499;-72
2022/01/28 02:49:45;;;;;;;5.80;2.05;;;;;;;;;;5015213;28;20037;-72
2022/01/28 02:52:21;;;;;;;5.28;1.70;;;;;;;;;;4997185;28;20051;-72
2022/01/28 02:54:50;;;;;;;5.70;1.73;;;;;;;;;;5013694;28;20033;-72
2022/01/28 02:57:24;;;;;;;6.00;1.83;;;;;;;;;;4998109;28;20045;-72
2022/01/28 02:59:53;;;;;;;5.57;1.35;;;;;;;;;;5012113;28;20071;-72
2022/01/28 03:02:20;;;;;;;5.07;1.60;;;;;;;;;;5013084;28;20385;-72
2022/01/28 03:07:32;;;;;;;4.53;1.50;;;;;;;;;;5015348;28;20075;-72
2022/01/28 03:12:59;;;;;;;5.07;1.65;;;;;;;;;;5011318;28;20064;-72
2022/01/28 03:15:25;;;;;;;5.57;1.70;;;;;;;;;;5011346;28;20052;-71
2022/01/28 03:18:43;;;;;;;5.47;1.50;;;;;;;;;;5011713;28;20515;-71
2022/01/28 03:21:01;;;;;;;5.18;1.58;;;;;;;;;;5004177;28;21021;-71
2022/01/28 03:23:36;;;;;;;5.78;1.48;;;;;;;;;;5016746;28;20082;-71
2022/01/28 03:26:15;;;;;;;4.18;1.52;;;;;;;;;;4997459;28;20044;-71
2022/01/28 03:28:44;;;;;;;3.25;1.20;;;;;;;;;;5014272;28;20033;-72
2022/01/28 03:31:12;;;;;;;5.72;1.88;;;;;;;;;;4981561;28;20059;-72
2022/01/28 03:33:40;;;;;;;4.05;1.50;;;;;;;;;;4996886;28;20032;-72
2022/01/28 03:36:10;;;;;;;4.63;1.65;;;;;;;;;;5002002;28;20037;-72
2022/01/28 03:38:37;;;;;;;6.70;2.22;;;;;;;;;;4980871;28;20052;-71
2022/01/28 03:41:05;;;;;;;5.65;1.83;;;;;;;;;;4994533;28;20061;-71
2022/01/28 03:43:33;;;;;;;5.40;1.70;;;;;;;;;;5009328;28;20096;-72
2022/01/28 03:46:00;;;;;;;4.00;1.40;;;;;;;;;;5012065;28;20021;-73
2022/01/28 03:48:26;;;;;;;3.67;1.30;;;;;;;;;;5013150;28;20029;-72
2022/01/28 03:50:53;;;;;;;4.70;1.67;;;;;;;;;;4998836;28;20029;-72
2022/01/28 03:53:20;;;;;;;4.53;1.45;;;;;;;;;;4995845;28;20041;-71
2022/01/28 03:55:47;;;;;;;5.38;1.60;;;;;;;;;;5015633;28;20816;-72
2022/01/28 03:58:13;;;;;;;;;;;;;;;;;;4995772;28;20084;-72
2022/01/28 04:00:40;;;;;;;4.78;1.58;;;;;;;;;;4995952;28;20649;-72
2022/01/28 04:13:51;;;;;;;3.70;1.15;;;;;;;;;;5012648;28;20053;-71
2022/01/28 04:18:49;;;;;;;4.03;1.33;;;;;;;;;;5013155;28;20037;-72
2022/01/28 04:21:16;;;;;;;4.50;1.52;;;;;;;;;;4997343;28;20041;-73
2022/01/28 04:23:43;;;;;;;5.03;1.80;;;;;;;;;;5011379;28;20064;-72
2022/01/28 04:26:11;;;;;;;5.38;1.85;;;;;;;;;;5010515;28;20139;-72
2022/01/28 04:28:39;;;;;;;6.32;1.88;;;;;;;;;;4979743;28;20079;-71
2022/01/28 04:31:07;;;;;;;5.95;1.98;;;;;;;;;;5010324;28;20040;-71
2022/01/28 04:33:34;;;;;;;6.45;1.83;;;;;;;;;;5015064;28;20136;-71
2022/01/28 04:36:00;;;;;;;6.13;1.90;;;;;;;;;;4991072;28;20136;-71
2022/01/28 04:41:37;;;;;;;4.55;1.73;;;;;;;;;;5011962;28;22480;-72
2022/01/28 04:44:16;;;;;;;4.97;1.80;;;;;;;;;;5009865;28;20025;-71
2022/01/28 04:47:42;;;;;;;5.45;1.90;;;;;;;;;;5005563;28;20037;-71
2022/01/28 04:52:50;;;;;;;5.82;1.80;;;;;;;;;;5012017;28;20485;-72
2022/01/28 05:03:45;;;;;;;8.52;2.45;;;;;;;;;;5008663;28;20075;-72
2022/01/28 05:26:20;;;;;;;6.43;2.33;;;;;;;;;;4914491;29;20521;-72
2022/01/28 05:28:39;;;;;;;7.03;2.30;;;;;;;;;;4914425;29;20039;-72
2022/01/28 05:31:08;;;;;;;7.00;2.38;;;;;;;;;;4910492;29;20761;-72
2022/01/28 05:33:36;;;;;;;7.05;2.50;;;;;;;;;;4912194;29;20040;-72
2022/01/28 05:36:05;;;;;;;7.50;2.40;;;;;;;;;;4910456;28;20055;-73
2022/01/28 05:38:32;;;;;;;7.40;2.50;;;;;;;;;;4912246;29;20035;-73
2022/01/28 05:40:59;;;;;;;8.20;2.40;;;;;;;;;;4971423;28;20041;-73
2022/01/28 05:43:26;;;;;;;7.45;2.25;;;;;;;;;;4987750;28;20574;-72
2022/01/28 05:45:55;;;;;;;6.28;2.20;;;;;;;;;;4985174;28;20033;-73
2022/01/28 05:48:24;;;;;;;6.10;2.22;;;;;;;;;;4970419;28;20027;-73
2022/01/28 05:50:51;;;;;;;6.72;2.33;;;;;;;;;;4974421;28;20038;-72
2022/01/28 05:53:20;;;;;;;7.53;2.60;;;;;;;;;;4988204;28;20042;-73
2022/01/28 05:55:47;;;;;;;6.22;2.30;;;;;;;;;;4982830;28;20096;-72
2022/01/28 05:58:15;;;;;;;6.43;2.40;;;;;;;;;;4990622;28;20038;-72
2022/01/28 06:00:42;;;;;;;7.55;2.58;;;;;;;;;;4985046;28;20049;-72
2022/01/28 06:03:09;;;;;;;;;;;;;;;;;;4993247;28;20152;-72
2022/01/28 06:05:37;;;;;;;6.70;2.63;;;;;;;;;;4975677;28;19920;-73
2022/01/28 06:08:07;;;;;;;7.43;2.35;;;;;;;;;;4991559;28;20045;-73
2022/01/28 06:10:35;;;;;;;8.88;2.60;;;;;;;;;;4995886;28;20059;-72
2022/01/28 06:13:05;;;;;;;6.15;2.25;;;;;;;;;;4990661;28;20018;-72
2022/01/28 06:15:33;;;;;;;6.50;2.15;;;;;;;;;;4997539;28;20148;-74
2022/01/28 06:18:00;;;;;;;7.35;2.20;;;;;;;;;;4976540;28;20145;-72
2022/01/28 06:20:28;;;;;;;6.75;2.47;;;;;;;;;;4995327;28;20092;-72
2022/01/28 06:22:57;;;;;;;6.50;2.45;;;;;;;;;;4996068;28;20033;-72
2022/01/28 06:25:25;;;;;;;5.82;2.00;;;;;;;;;;4995915;28;20030;-73
2022/01/28 06:27:52;;;;;;;5.90;2.10;;;;;;;;;;4971927;28;20025;-73
2022/01/28 06:30:20;;;;;;;5.03;1.70;;;;;;;;;;4995818;28;20116;-73
2022/01/28 06:32:48;;;;;;;8.35;2.10;;;;;;;;;;4992075;28;20140;-73
2022/01/28 06:35:17;;;;;;;5.55;2.00;;;;;;;;;;4995881;28;20445;-73
2022/01/28 06:37:45;;;;;;;4.68;1.77;;;;;;;;;;4978857;28;20050;-72
2022/01/28 06:40:16;;;;;;;6.15;1.90;;;;;;;;;;4978686;28;20049;-73
2022/01/28 06:42:44;;;;;;;5.07;1.55;;;;;;;;;;4984097;28;20504;-73
2022/01/28 06:45:11;;;;;;;7.35;2.10;;;;;;;;;;4995162;28;20608;-72
2022/01/28 06:47:39;;;;;;;5.65;1.85;;;;;;;;;;4995269;28;20060;-72
2022/01/28 06:50:07;;;;;;;5.00;1.80;;;;;;;;;;4996389;28;20017;-72
2022/01/28 06:52:35;;;;;;;5.43;1.90;;;;;;;;;;4992822;28;20041;-72
2022/01/28 06:55:02;;;;;;;6.18;1.92;;;;;;;;;;4992959;28;20065;-72
2022/01/28 06:57:30;;;;;;;7.90;2.25;;;;;;;;;;4993658;28;20602;-72
2022/01/28 06:59:57;;;;;;;4.80;1.70;;;;;;;;;;4993080;28;20035;-71
2022/01/28 07:02:25;;;;;;;5.95;2.00;;;;;;;;;;4998703;28;20022;-72
2022/01/28 07:04:59;;;;;;;5.05;1.65;;;;;;;;;;4992397;28;20156;-73
2022/01/28 07:07:33;;;;;;;4.80;1.63;;;;;;;;;;5000595;28;20211;-73
2022/01/28 07:10:00;;;;;;;5.30;1.73;;;;;;;;;;4994484;28;20030;-73
2022/01/28 07:12:26;;;;;;;;;;;;;;;;;;4999888;28;20029;-73
2022/01/28 07:14:53;;;;;;;5.80;1.67;;;;;;;;;;4991392;28;20604;-72
2022/01/28 07:17:20;;;;;;;6.72;1.90;;;;;;;;;;4999539;28;20440;-72
2022/01/28 07:19:48;;;;;;;5.25;1.70;;;;;;;;;;4993679;28;20100;-71
2022/01/28 07:22:17;;;;;;;5.38;1.77;;;;;;;;;;4995911;28;20044;-71
2022/01/28 07:24:44;;;;;;;5.53;1.90;;;;;;;;;;5002256;28;20440;-71
2022/01/28 07:27:19;;;;;;;7.85;1.90;;;;;;;;;;4991832;28;20034;-72
2022/01/28 07:29:47;;;;;;;4.63;1.67;;;;;;;;;;4995161;28;20827;-71
2022/01/28 07:32:15;;;;;;;6.63;2.00;;;;;;;;;;4992211;28;20038;-71
2022/01/28 07:34:44;;;;;;;7.25;2.20;;;;;;;;;;4992824;28;20034;-73
2022/01/28 07:37:11;;;;;;;7.00;2.25;;;;;;;;;;4978657;28;20081;-71
2022/01/28 07:39:39;;;;;;;8.18;2.80;;;;;;;;;;4998967;28;20045;-71
2022/01/28 07:42:07;;;;;;;9.05;3.85;;;;;;;;;;5011518;28;20033;-72
2022/01/28 07:44:34;;;;;;;10.82;4.75;;;;;;;;;;5016158;28;20030;-71
2022/01/28 07:47:01;;;;;;;10.52;4.47;;;;;;;;;;5007270;28;20065;-71
2022/01/28 07:49:27;;;;;;;;;;;;;;;;;;5015455;28;20112;-72
2022/01/28 07:51:55;;;;;;;8.27;3.42;;;;;;;;;;4995171;28;20343;-73
2022/01/28 07:54:23;;;;;;;9.43;3.47;;;;;;;;;;5012484;28;20179;-72
2022/01/28 07:56:53;;;;;;;7.80;3.55;;;;;;;;;;5012939;28;20052;-72
2022/01/28 07:59:23;;;;;;;9.55;4.10;;;;;;;;;;5014964;28;20094;-72
2022/01/28 08:01:51;;;;;;;10.68;4.70;;;;;;;;;;5010293;28;20026;-72
2022/01/28 08:04:19;;;;;;;10.55;5.20;;;;;;;;;;5016193;28;20141;-72
2022/01/28 08:06:46;;;;;;;12.13;5.10;;;;;;;;;;5011259;28;20094;-72
2022/01/28 08:09:13;;;;;;;11.55;5.97;;;;;;;;;;4993711;28;20061;-72
2022/01/28 08:11:41;;;;;;;12.32;7.18;;;;;;;;;;5010659;28;20026;-72
2022/01/28 08:14:07;;;;;;;14.32;7.85;;;;;;;;;;4992991;28;20465;-72
2022/01/28 08:16:35;;;;;;;12.13;6.60;;;;;;;;;;4999208;28;20026;-72
2022/01/28 08:19:02;;;;;;;10.25;4.70;;;;;;;;;;5010999;28;20040;-72
2022/01/28 08:21:30;;;;;;;10.07;4.47;;;;;;;;;;4998292;28;20045;-72
2022/01/28 08:23:57;;;;;;;9.75;4.05;;;;;;;;;;5012387;28;20030;-71
2022/01/28 08:26:25;;;;;;;9.70;4.18;;;;;;;;;;5010985;28;20029;-72
2022/01/28 08:28:52;;;;;;;10.52;5.13;;;;;;;;;;4992198;28;20030;-72
2022/01/28 08:31:20;;;;;;;12.52;6.60;;;;;;;;;;5016519;28;20120;-73
2022/01/28 08:33:48;;;;;;;16.02;10.13;;;;;;;;;;5012673;28;20032;-72
2022/01/28 08:36:15;;;;;;;16.85;11.52;;;;;;;;;;5013670;28;20083;-72
2022/01/28 08:38:48;;;;;;;15.35;10.45;;;;;;;;;;5008628;28;20033;-72
2022/01/28 08:41:15;;;;;;;13.55;8.18;;;;;;;;;;5009179;28;20056;-72
2022/01/28 08:43:44;;;;;;;11.73;6.18;;;;;;;;;;4998823;28;20672;-72
2022/01/28 08:46:11;;;;;;;12.88;6.70;;;;;;;;;;5010127;28;20729;-72
2022/01/28 08:48:38;;;;;;;11.23;6.07;;;;;;;;;;5013642;28;20026;-72
2022/01/28 08:51:05;;;;;;;9.90;4.90;;;;;;;;;;5009176;28;20153;-71
2022/01/28 08:53:32;;;;;;;10.70;4.47;;;;;;;;;;4994470;28;20601;-72
2022/01/28 08:56:00;;;;;;;9.90;4.68;;;;;;;;;;4994303;28;20034;-72
2022/01/28 08:58:28;;;;;;;9.77;4.47;;;;;;;;;;4995752;28;20048;-72
2022/01/28 09:00:55;;;;;;;9.45;4.75;;;;;;;;;;5007861;28;20409;-72
2022/01/28 09:03:23;;;;;;;13.55;5.55;;;;;;;;;;5013719;28;20041;-72
2022/01/28 09:05:51;;;;;;;12.43;5.55;;;;;;;;;;5006559;28;20021;-72
2022/01/28 09:08:19;;;;;;;13.57;6.97;;;;;;;;;;4995572;28;20064;-72
2022/01/28 09:10:57;;;;;;;17.75;9.30;;;;;;;;;;5012903;28;20041;-72
2022/01/28 09:13:28;;;;;;;15.05;7.00;;;;;;;;;;5011636;28;20032;-72
2022/01/28 09:15:56;;;;;;;12.00;6.30;;;;;;;;;;4992585;28;20037;-71
2022/01/28 09:18:25;;;;;;;15.02;6.45;;;;;;;;;;4997554;28;20033;-72
2022/01/28 09:20:53;;;;;;;11.00;5.63;;;;;;;;;;5009780;28;20033;-72
2022/01/28 09:23:19;;;;;;;13.07;5.53;;;;;;;;;;4984483;28;20042;-72
2022/01/28 09:25:47;;;;;;;;;;;;;;;;;;5007567;28;20347;-72
2022/01/28 09:28:14;;;;;;;13.85;7.53;;;;;;;;;;5010164;28;19946;-72
2022/01/28 09:30:42;;;;;;;17.60;8.25;;;;;;;;;;5020809;28;20032;-72
2022/01/28 09:33:10;;;;;;;16.23;7.72;;;;;;;;;;5014257;28;20099;-73
2022/01/28 09:35:41;;;;;;;16.80;8.32;;;;;;;;;;5014151;28;20038;-72
2022/01/28 09:38:08;;;;;;;14.77;7.90;;;;;;;;;;5016979;28;20038;-72
2022/01/28 09:40:36;;;;;;;18.48;9.45;;;;;;;;;;4984434;28;20058;-72
2022/01/28 09:43:07;;;;;;;23.00;11.93;;;;;;;;;;4997970;28;20037;-72
2022/01/28 09:45:35;;;;;;;17.70;10.57;;;;;;;;;;4999941;28;20722;-70
2022/01/28 09:48:03;;;;;;;20.63;11.90;;;;;;;;;;5004963;28;20059;-69
2022/01/28 09:50:31;;;;;;;20.48;11.25;;;;;;;;;;5007745;28;20029;-69
2022/01/28 09:52:59;;;;;;;23.13;11.63;;;;;;;;;;5003867;28;20034;-70
2022/01/28 09:55:27;;;;;;;25.17;12.65;;;;;;;;;;4980855;28;20745;-70
2022/01/28 09:58:02;;;;;;;20.65;11.80;;;;;;;;;;5009043;28;20025;-70
2022/01/28 10:00:29;;;;;;;18.50;10.65;;;;;;;;;;5014614;28;20033;-70
2022/01/28 10:03:06;;;;;;;19.73;11.07;;;;;;;;;;4995796;28;20907;-69
2022/01/28 10:05:36;;;;;;;21.35;12.77;;;;;;;;;;4967741;28;20025;-69
2022/01/28 10:08:16;;;;;;;18.88;13.05;;;;;;;;;;5008051;28;20369;-70
2022/01/28 10:10:47;;;;;;;21.75;13.85;;;;;;;;;;5008756;28;20037;-71
2022/01/28 10:13:25;;;;;;;25.10;14.77;;;;;;;;;;5013497;28;20055;-71
2022/01/28 10:15:53;;;;;;;17.48;10.38;;;;;;;;;;5009330;28;20699;-71
2022/01/28 10:18:21;;;;;;;13.95;7.28;;;;;;;;;;5013304;28;20535;-71
2022/01/28 10:20:48;;;;;;;10.18;5.15;;;;;;;;;;5015846;28;20026;-71
2022/01/28 10:23:15;;;;;;;8.48;4.35;;;;;;;;;;5007158;28;20029;-71
2022/01/28 10:25:44;;;;;;;10.27;5.13;;;;;;;;;;5011247;28;20024;-71
2022/01/28 10:28:14;;;;;;;10.15;5.05;;;;;;;;;;5010385;28;20029;-71
2022/01/28 10:30:42;;;;;;;10.60;5.40;;;;;;;;;;4995047;28;20022;-71
2022/01/28 10:33:17;;;;;;;10.55;5.65;;;;;;;;;;5010581;28;21433;-71
2022/01/28 10:35:51;;;;;;;8.60;4.20;;;;;;;;;;5008660;28;20115;-72
2022/01/28 10:38:32;;;;;;;9.00;4.00;;;;;;;;;;4990526;28;20052;-73
2022/01/28 10:41:12;;;;;;;8.95;4.10;;;;;;;;;;4987810;28;20047;-72
2022/01/28 10:43:54;;;;;;;8.13;3.85;;;;;;;;;;5010929;28;20038;-72
2022/01/28 10:46:22;;;;;;;8.48;3.83;;;;;;;;;;4988428;28;20021;-71
2022/01/28 10:48:53;;;;;;;8.98;4.20;;;;;;;;;;5005583;28;20038;-71
2022/01/28 10:51:21;;;;;;;9.68;4.30;;;;;;;;;;4988652;28;20100;-71
2022/01/28 10:54:05;;;;;;;7.93;3.78;;;;;;;;;;4984193;28;20036;-74
2022/01/28 10:56:45;;;;;;;8.23;3.40;;;;;;;;;;4994207;28;20036;-72
2022/01/28 10:59:14;;;;;;;10.70;4.20;;;;;;;;;;5002994;28;20740;-73
2022/01/28 11:01:42;;;;;;;8.20;3.50;;;;;;;;;;5007785;28;20092;-73
2022/01/28 11:04:11;;;;;;;8.65;3.47;;;;;;;;;;5000180;28;20060;-72
2022/01/28 11:06:41;;;;;;;7.85;3.40;;;;;;;;;;5000150;28;20112;-71
2022/01/28 11:09:12;;;;;;;8.20;3.55;;;;;;;;;;5000677;28;20128;-71
2022/01/28 11:11:39;;;;;;;8.98;4.00;;;;;;;;;;5004458;28;20139;-71
2022/01/28 11:14:05;;;;;;;9.93;4.30;;;;;;;;;;4985021;28;20037;-71
2022/01/28 11:16:32;;;;;;;10.75;4.55;;;;;;;;;;5003306;28;20033;-71
2022/01/28 11:18:59;;;;;;;9.88;5.13;;;;;;;;;;4997259;28;20041;-71
2022/01/28 11:21:42;;;;;;;11.02;4.70;;;;;;;;;;5004029;28;20459;-71
2022/01/28 11:24:17;;;;;;;9.88;5.20;;;;;;;;;;5000860;28;20037;-71
2022/01/28 11:26:53;;;;;;;11.93;5.38;;;;;;;;;;5002480;28;20029;-71
2022/01/28 11:29:21;;;;;;;10.27;5.05;;;;;;;;;;4990383;28;20040;-72
2022/01/28 11:31:50;;;;;;;9.40;4.57;;;;;;;;;;5002526;28;20290;-71
2022/01/28 11:34:27;;;;;;;9.02;4.75;;;;;;;;;;4984891;28;20128;-71
2022/01/28 11:36:56;;;;;;;9.15;4.50;;;;;;;;;;5000470;28;20026;-71
2022/01/28 11:39:28;;;;;;;8.18;3.80;;;;;;;;;;5001803;28;20395;-71
2022/01/28 11:42:06;;;;;;;9.88;3.40;;;;;;;;;;4978849;28;20046;-72
2022/01/28 11:44:44;;;;;;;8.85;3.10;;;;;;;;;;4983593;28;20030;-71
2022/01/28 11:47:12;;;;;;;10.23;3.70;;;;;;;;;;4979289;28;20034;-72
2022/01/28 11:49:58;;;;;;;9.88;3.83;;;;;;;;;;4982579;28;20038;-72
2022/01/28 11:52:27;;;;;;;9.05;3.67;;;;;;;;;;4982906;28;20104;-71
2022/01/28 11:54:54;;;;;;;7.60;3.38;;;;;;;;;;4975761;28;20034;-72
2022/01/28 11:57:23;;;;;;;8.43;3.20;;;;;;;;;;4969966;28;20037;-71
2022/01/28 11:59:51;;;;;;;9.35;3.40;;;;;;;;;;4964494;28;20040;-72
2022/01/28 12:02:18;;;;;;;6.60;2.60;;;;;;;;;;4964778;28;20594;-73
2022/01/28 12:04:45;;;;;;;7.25;2.65;;;;;;;;;;4982229;28;20428;-70
2022/01/28 12:07:14;;;;;;;6.38;2.40;;;;;;;;;;4960779;28;20096;-71
2022/01/28 12:09:42;;;;;;;6.47;2.20;;;;;;;;;;4965086;28;20034;-71
2022/01/28 12:12:12;;;;;;;5.97;1.90;;;;;;;;;;4962026;28;20693;-71
2022/01/28 12:15:11;;;;;;;6.45;2.38;;;;;;;;;;4982481;28;20038;-72
2022/01/28 12:17:39;;;;;;;7.80;2.55;;;;;;;;;;4981100;28;20046;-71
2022/01/28 12:20:24;;;;;;;6.22;2.35;;;;;;;;;;4963135;28;20029;-71
2022/01/28 12:23:00;;;;;;;7.05;2.10;;;;;;;;;;4977821;28;20026;-72
2022/01/28 12:25:36;;;;;;;6.75;2.70;;;;;;;;;;4967505;28;20033;-72
2022/01/28 12:28:22;;;;;;;10.18;3.60;;;;;;;;;;4973785;28;20670;-72
2022/01/28 12:31:04;;;;;;;9.25;3.78;;;;;;;;;;4982707;28;20072;-71
2022/01/28 12:33:38;;;;;;;8.85;2.33;;;;;;;;;;4979638;28;20029;-71
2022/01/28 12:36:09;;;;;;;8.10;2.67;;;;;;;;;;4981102;28;20034;-72
2022/01/28 12:38:37;;;;;;;6.05;2.30;;;;;;;;;;4961220;28;20429;-72
2022/01/28 12:41:08;;;;;;;5.85;1.98;;;;;;;;;;4982493;28;20266;-72
2022/01/28 12:43:40;;;;;;;5.63;1.83;;;;;;;;;;4983724;28;20030;-72
2022/01/28 12:46:11;;;;;;;5.82;1.90;;;;;;;;;;4998288;28;20021;-72
2022/01/28 12:48:48;;;;;;;3.22;1.08;;;;;;;;;;4986778;28;20042;-72
2022/01/28 12:51:17;;;;;;;2.45;0.80;;;;;;;;;;4999145;28;20033;-70
2022/01/28 12:53:44;;;;;;;2.05;0.90;;;;;;;;;;4985498;28;20135;-71
2022/01/28 12:56:11;;;;;;;3.90;1.30;;;;;;;;;;4996350;28;20033;-71
2022/01/28 12:58:46;;;;;;;4.25;1.45;;;;;;;;;;5000132;28;20021;-71
2022/01/28 13:01:15;;;;;;;1.92;0.85;;;;;;;;;;4997439;28;20163;-71
2022/01/28 13:04:01;;;;;;;2.80;1.00;;;;;;;;;;4997547;28;20025;-71
2022/01/28 13:06:40;;;;;;;3.22;1.08;;;;;;;;;;4984001;28;20188;-73
2022/01/28 13:09:23;;;;;;;3.25;1.05;;;;;;;;;;4998760;28;20121;-71
2022/01/28 13:11:59;;;;;;;2.60;0.95;;;;;;;;;;4984001;28;20025;-71
2022/01/28 13:14:29;;;;;;;2.58;1.00;;;;;;;;;;4983268;28;20057;-71
2022/01/28 13:16:57;;;;;;;2.90;1.00;;;;;;;;;;4996915;28;20087;-72
2022/01/28 13:19:25;;;;;;;3.53;1.20;;;;;;;;;;4980712;28;20022;-71
2022/01/28 13:21:52;;;;;;;3.45;1.30;;;;;;;;;;4963225;28;20034;-71
2022/01/28 13:24:18;;;;;;;3.17;1.33;;;;;;;;;;4988876;28;20127;-72
2022/01/28 13:27:04;;;;;;;4.03;1.30;;;;;;;;;;4994402;28;20017;-71
2022/01/28 13:29:33;;;;;;;3.63;1.20;;;;;;;;;;5003322;28;20061;-71
2022/01/28 13:32:01;;;;;;;3.08;1.10;;;;;;;;;;4992289;28;20042;-72
2022/01/28 13:34:29;;;;;;;3.20;1.17;;;;;;;;;;4999666;28;20754;-71
2022/01/28 13:36:57;;;;;;;2.45;1.10;;;;;;;;;;4996725;28;20700;-71
2022/01/28 13:39:28;;;;;;;4.45;1.48;;;;;;;;;;5000698;28;20025;-72
2022/01/28 13:42:15;;;;;;;5.35;1.80;;;;;;;;;;4994630;28;20182;-71
2022/01/28 13:44:49;;;;;;;5.45;1.77;;;;;;;;;;5002216;28;20116;-71
2022/01/28 13:47:42;;;;;;;3.42;1.20;;;;;;;;;;4983084;28;20049;-71
2022/01/28 13:50:10;;;;;;;3.53;1.30;;;;;;;;;;4994405;28;20393;-72
2022/01/28 13:52:49;;;;;;;4.25;1.55;;;;;;;;;;4984871;28;20029;-71
2022/01/28 13:55:34;;;;;;;3.30;1.33;;;;;;;;;;4974411;28;20038;-72
2022/01/28 13:58:09;;;;;;;3.60;1.17;;;;;;;;;;4993156;28;20046;-72
2022/01/28 14:00:36;;;;;;;2.80;1.00;;;;;;;;;;4984736;28;20026;-72
2022/01/28 14:03:03;;;;;;;2.67;0.98;;;;;;;;;;5000164;28;20281;-72
2022/01/28 14:05:50;;;;;;;3.38;1.10;;;;;;;;;;5001389;28;20021;-72
2022/01/28 14:08:36;;;;;;;4.18;0.90;;;;;;;;;;4995781;28;20034;-72
2022/01/28 14:11:23;;;;;;;2.90;1.00;;;;;;;;;;4993436;28;20152;-72
2022/01/28 14:14:14;;;;;;;2.83;1.00;;;;;;;;;;5001366;28;20806;-72
2022/01/28 14:16:40;;;;;;;2.60;0.88;;;;;;;;;;5002626;28;20026;-72
2022/01/28 14:19:10;;;;;;;2.63;0.90;;;;;;;;;;4986450;28;20041;-71
2022/01/28 14:21:37;;;;;;;2.38;1.00;;;;;;;;;;4988717;28;20034;-70
2022/01/28 14:24:06;;;;;;;2.72;1.08;;;;;;;;;;4983615;28;20046;-72
2022/01/28 14:26:39;;;;;;;2.95;1.20;;;;;;;;;;5000675;28;20567;-72
2022/01/28 14:31:59;;;;;;;2.10;0.90;;;;;;;;;;4922927;28;20528;-72
2022/01/28 14:34:26;;;;;;;3.22;1.00;;;;;;;;;;4918097;28;20385;-71
2022/01/28 14:36:53;;;;;;;2.33;0.80;;;;;;;;;;4923557;28;20066;-70
2022/01/28 14:39:20;;;;;;;4.68;0.90;;;;;;;;;;4911043;29;20039;-71
2022/01/28 14:41:49;;;;;;;2.58;0.77;;;;;;;;;;4928588;28;20119;-71
2022/01/28 14:44:15;;;;;;;8.05;4.00;;;;;;;;;;4926320;28;20039;-71
2022/01/28 14:46:41;;;;;;;7.30;3.50;;;;;;;;;;4928657;28;20132;-71
2022/01/28 14:49:13;;;;;;;8.50;4.60;;;;;;;;;;4927729;28;20054;-70
2022/01/28 14:51:41;;;;;;;12.80;8.55;;;;;;;;;;4911251;29;20408;-71
2022/01/28 14:54:07;;;;;;;14.10;9.95;;;;;;;;;;4911709;28;20485;-72
2022/01/28 14:56:34;;;;;;;9.57;5.90;;;;;;;;;;4911198;28;20106;-72
2022/01/28 14:59:01;;;;;;;9.05;4.63;;;;;;;;;;4908677;28;20046;-72
2022/01/28 15:01:29;;;;;;;7.32;3.40;;;;;;;;;;4929169;28;20113;-72
2022/01/28 15:03:58;;;;;;;8.10;3.13;;;;;;;;;;4910115;28;20035;-73
2022/01/28 15:06:25;;;;;;;7.22;3.13;;;;;;;;;;4926043;28;20046;-73
2022/01/28 15:08:59;;;;;;;7.75;3.78;;;;;;;;;;4963341;28;20050;-72
2022/01/28 15:11:43;;;;;;;6.90;2.80;;;;;;;;;;4990450;28;20033;-72
2022/01/28 15:14:12;;;;;;;7.30;2.80;;;;;;;;;;5003640;28;20519;-72
2022/01/28 15:16:39;;;;;;;5.60;2.45;;;;;;;;;;5006116;28;20815;-72
2022/01/28 15:19:07;;;;;;;6.75;2.70;;;;;;;;;;5001267;28;20146;-72
2022/01/28 15:21:34;;;;;;;7.57;2.90;;;;;;;;;;4991365;28;21167;-73
2022/01/28 15:24:00;;;;;;;9.95;4.90;;;;;;;;;;5001613;28;20053;-72
2022/01/28 15:26:27;;;;;;;9.15;5.00;;;;;;;;;;5003633;28;20032;-72
2022/01/28 15:29:08;;;;;;;12.10;8.85;;;;;;;;;;4986685;28;20053;-72
2022/01/28 15:34:40;;;;;;;9.20;5.82;;;;;;;;;;5007849;28;20098;-72
2022/01/28 15:37:08;;;;;;;19.73;15.63;;;;;;;;;;4985078;28;20129;-72
2022/01/28 15:39:36;;;;;;;16.35;12.00;;;;;;;;;;4990533;28;20711;-73
2022/01/28 15:42:05;;;;;;;13.20;8.98;;;;;;;;;;5000805;28;20153;-72
2022/01/28 15:44:31;;;;;;;11.13;7.65;;;;;;;;;;4991541;28;20033;-72
2022/01/28 15:46:59;;;;;;;11.10;6.40;;;;;;;;;;5001030;28;20480;-73
2022/01/28 15:49:25;;;;;;;11.52;6.40;;;;;;;;;;4986569;28;20033;-73
2022/01/28 15:51:52;;;;;;;9.35;4.93;;;;;;;;;;5002485;28;20025;-73
2022/01/28 15:54:19;;;;;;;9.45;4.78;;;;;;;;;;5002904;28;20064;-73
2022/01/28 15:56:46;;;;;;;9.05;4.10;;;;;;;;;;5006031;28;20823;-73
2022/01/28 15:59:15;;;;;;;9.85;4.70;;;;;;;;;;5002519;28;20029;-73
2022/01/28 16:01:47;;;;;;;10.20;4.35;;;;;;;;;;5003287;28;20044;-73
2022/01/28 16:04:18;;;;;;;7.30;3.00;;;;;;;;;;4986587;28;20068;-73
2022/01/28 16:06:44;;;;;;;6.03;2.47;;;;;;;;;;4987581;28;20030;-73
2022/01/28 16:09:11;;;;;;;5.97;1.80;;;;;;;;;;5000716;28;20037;-73
2022/01/28 16:11:50;;;;;;;5.20;1.55;;;;;;;;;;5006581;28;20033;-72
2022/01/28 16:14:26;;;;;;;3.88;1.50;;;;;;;;;;4987140;28;20116;-72
2022/01/28 16:19:39;;;;;;;4.65;1.60;;;;;;;;;;5003562;28;20079;-72
2022/01/28 16:22:07;;;;;;;5.90;1.90;;;;;;;;;;5002219;28;20103;-74
2022/01/28 16:24:34;;;;;;;5.18;2.00;;;;;;;;;;4983557;28;20035;-71
2022/01/28 16:27:01;;;;;;;6.25;2.53;;;;;;;;;;4985351;28;20057;-73
2022/01/28 16:29:28;;;;;;;5.85;2.15;;;;;;;;;;5002505;28;20044;-73
2022/01/28 16:31:55;;;;;;;5.47;2.00;;;;;;;;;;5000639;28;20487;-73
2022/01/28 16:34:22;;;;;;;6.53;2.10;;;;;;;;;;5003511;28;20117;-73
2022/01/28 16:36:50;;;;;;;4.82;1.85;;;;;;;;;;5002065;28;20524;-73
2022/01/28 16:39:17;;;;;;;5.43;2.00;;;;;;;;;;4989750;28;20159;-73
2022/01/28 16:41:46;;;;;;;5.95;2.15;;;;;;;;;;4985180;28;20927;-73